Punta Gorda, FL

11:02 PM EDT on March 26, 2017 (GMT -0400)
Charlotte County | | Change Station

Elev 23 ft 26.92 °N, 81.99 °W | Updated 9 minutes ago

Overcast
Overcast
72 °F
Feels Like 72 °F
N
9
Wind Variable Wind from ESE

Today
High -- | Low -- °F
--% Chance of Precip.
Yesterday
High -- | Low -- °F
Precip. -- in
Pressure 30.13 in
Visibility 10.0 miles
Clouds Scattered Clouds 4900 ft
Overcast 8000 ft
Dew Point 61 °F
Humidity 68%
Rainfall 0.01 in
Snow Depth Not available.
7:24 AM 7:42 PM
Waning Crescent, 1% visible
METAR KPGD 270253Z AUTO 11008KT 10SM SCT049 OVC080 22/16 A3013 RMK AO2 SLP203 60001 T02220161 51019
Pressure 30.13 in
Visibility 10.0 miles
Clouds Scattered Clouds 4900 ft
Overcast 8000 ft
Dew Point 61 °F
Humidity 68%
Rainfall 0.01 in
Snow Depth Not available.
7:24 AM 7:42 PM
Waning Crescent, 1% visible
METAR KPGD 270253Z AUTO 11008KT 10SM SCT049 OVC080 22/16 A3013 RMK AO2 SLP203 60001 T02220161 51019

Get Severe Weather Alerts

Thanks for signing up!

Be on the lookout for a verification email in your inbox.

You'll start receiving the daily forecast at 8 AM.

×

10-Day Weather Forecast

Almanac

Astronomy

Mar. 26, 2017 Rise Set
Actual Time
Civil Twilight
Nautical Twilight
Astronomical Twilight
Moon
Length of Visible Light
Length of Day
Tomorrow will be .
, % of the Moon is Illuminated

Today's Extremes

State Highs State Lows

Community

WunderPhotos

Upload Photos

1,962,540 photos uploaded!

WunderBlog® & News

Nearby

Air Quality

  Air Quality AQ Index Pollutant
Not available.

Snow Depth

Station Depth Elevation

Earthquake Activity

City Distance Mag. Time & Date
Minimum magnitude displayed is 2.5.

Earthquake Activity

City Distance Mag. Time & Date
Minimum magnitude displayed is 2.5.

Coastal Water Temperatures

Place Temperature

Stations

Nearby Weather Stations

Station Location Temp. Windchill Dew Point Humidity Wind Precip. Elev Updated Type
                   

Watches & Warnings

There are currently no watches in effect.